createdAt,value
2023-04-01T00:03:30.580Z,81.52
2023-04-01T00:08:32.969Z,81.61
2023-04-01T00:13:34.442Z,81.78
2023-04-01T00:18:35.950Z,81.55
2023-04-01T00:23:37.329Z,81.96
2023-04-01T00:28:38.807Z,82.16
2023-04-01T00:33:41.724Z,82.05
2023-04-01T00:38:43.955Z,82.67
2023-04-01T00:43:48.602Z,82.57
2023-04-01T00:48:54.695Z,82.58
2023-04-01T00:53:59.041Z,83.25
2023-04-01T00:59:11.977Z,82.18
2023-04-01T01:04:23.011Z,82.14
2023-04-01T01:09:33.957Z,81.88
2023-04-01T01:14:49.741Z,82.27
2023-04-01T01:20:02.412Z,82.30
2023-04-01T01:25:18.795Z,82.30
2023-04-01T01:30:43.186Z,81.84
2023-04-01T01:35:53.242Z,81.54
2023-04-01T01:40:58.640Z,81.59
2023-04-01T01:46:07.201Z,81.64
2023-04-01T01:51:09.170Z,81.53
2023-04-01T01:56:13.595Z,81.39
2023-04-01T02:01:21.122Z,81.70
2023-04-01T02:06:26.409Z,81.15
2023-04-01T02:11:34.748Z,81.68
2023-04-01T02:16:42.380Z,80.97
2023-04-01T02:21:45.184Z,81.50
2023-04-01T02:26:47.562Z,81.08
2023-04-01T02:31:51.361Z,81.13
2023-04-01T02:36:54.299Z,80.95
2023-04-01T02:41:55.872Z,81.18
2023-04-01T02:46:57.666Z,81.12
2023-04-01T02:51:59.166Z,80.61
2023-04-01T02:57:00.749Z,81.07
2023-04-01T03:02:02.322Z,80.90
2023-04-01T03:07:03.991Z,81.43
2023-04-01T03:12:07.112Z,81.13
2023-04-01T03:17:19.384Z,80.83
2023-04-01T03:22:22.021Z,81.09
2023-04-01T03:27:24.232Z,80.23
2023-04-01T03:32:26.144Z,80.84
2023-04-01T03:37:27.684Z,80.86
2023-04-01T03:42:29.186Z,80.70
2023-04-01T03:47:30.855Z,81.14
2023-04-01T03:52:32.623Z,80.74
2023-04-01T03:57:34.566Z,80.48
2023-04-01T04:02:46.645Z,79.99
2023-04-01T04:07:54.192Z,79.50
2023-04-01T04:12:56.706Z,80.20
2023-04-01T04:18:00.531Z,79.86
2023-04-01T04:23:02.112Z,79.20
2023-04-01T04:28:03.624Z,79.41
2023-04-01T04:33:05.190Z,78.88
2023-04-01T04:38:07.202Z,79.03
2023-04-01T04:43:11.076Z,78.10
2023-04-01T04:48:19.270Z,78.50
2023-04-01T04:53:21.039Z,78.92
2023-04-01T04:58:22.492Z,79.31
2023-04-01T05:03:25.570Z,79.64
2023-04-01T05:08:27.186Z,78.94
2023-04-01T05:13:29.139Z,79.54
2023-04-01T05:18:30.747Z,79.70
2023-04-01T05:23:33.516Z,79.33
2023-04-01T05:28:35.210Z,79.37
2023-04-01T05:33:36.761Z,79.36
2023-04-01T05:38:40.640Z,80.01
2023-04-01T05:43:45.190Z,79.83
2023-04-01T05:49:18.786Z,79.83
2023-04-01T05:54:20.611Z,80.85
2023-04-01T05:59:22.110Z,80.63
2023-04-01T06:04:24.224Z,79.78
2023-04-01T06:09:31.246Z,80.60
2023-04-01T06:15:04.769Z,80.50
2023-04-01T06:20:25.338Z,81.19
2023-04-01T06:25:53.950Z,80.85
2023-04-01T06:31:15.561Z,80.32
2023-04-01T06:36:55.348Z,79.64
2023-04-01T06:42:15.617Z,78.81
2023-04-01T06:47:29.905Z,79.03
2023-04-01T06:53:24.321Z,77.87
2023-04-01T06:58:53.736Z,77.24
2023-04-01T07:04:03.093Z,77.54
2023-04-01T07:09:11.366Z,76.51
2023-04-01T07:14:42.869Z,75.79
2023-04-01T07:20:02.959Z,75.92
2023-04-01T07:25:17.597Z,75.54
2023-04-01T07:30:28.213Z,75.65
2023-04-01T07:35:42.548Z,74.87
2023-04-01T07:40:59.905Z,74.80
2023-04-01T07:46:35.640Z,75.82
2023-04-01T07:51:49.038Z,75.15
2023-04-01T07:57:03.043Z,73.99
2023-04-01T08:02:34.121Z,74.41
2023-04-01T08:08:07.510Z,74.17
2023-04-01T08:13:49.125Z,74.09
2023-04-01T08:19:57.447Z,73.13
2023-04-01T08:25:05.137Z,73.39
2023-04-01T08:30:21.351Z,72.02
2023-04-01T08:35:33.336Z,72.47
2023-04-01T08:40:58.452Z,72.40
2023-04-01T08:46:08.130Z,71.53
2023-04-01T08:51:16.176Z,72.17
2023-04-01T08:56:27.663Z,70.93
2023-04-01T09:01:41.985Z,72.02
2023-04-01T09:07:17.794Z,69.87
2023-04-01T09:13:08.116Z,71.38
2023-04-01T09:18:23.966Z,70.47
2023-04-01T09:24:04.826Z,71.20
2023-04-01T09:29:31.107Z,71.44
2023-04-01T09:34:36.014Z,70.74
2023-04-01T09:39:47.009Z,70.50
2023-04-01T09:45:07.724Z,70.31
2023-04-01T09:50:31.962Z,68.51
2023-04-01T09:56:00.222Z,69.41
2023-04-01T10:01:26.830Z,70.96
2023-04-01T10:06:38.723Z,71.00
2023-04-01T10:11:56.132Z,70.21
2023-04-01T10:17:38.360Z,70.35
2023-04-01T10:22:40.540Z,68.38
2023-04-01T10:27:57.096Z,68.81
2023-04-01T10:33:44.464Z,67.81
2023-04-01T10:39:22.769Z,67.62
2023-04-01T10:45:02.839Z,69.82
2023-04-01T10:50:34.148Z,70.18
2023-04-01T10:56:09.585Z,68.93
2023-04-01T11:02:10.756Z,68.64
2023-04-01T11:08:07.120Z,70.25
2023-04-01T11:13:32.532Z,67.71
2023-04-01T11:19:11.937Z,69.49
2023-04-01T11:24:38.223Z,67.98
2023-04-01T11:30:27.133Z,66.33
2023-04-01T11:36:10.952Z,69.75
2023-04-01T11:41:27.920Z,67.85
2023-04-01T11:47:04.191Z,67.80
2023-04-01T11:52:16.620Z,68.46
2023-04-01T11:57:36.800Z,69.11
2023-04-01T12:03:15.534Z,72.27
2023-04-01T12:08:22.928Z,71.66
2023-04-01T12:13:42.296Z,73.53
2023-04-01T12:18:53.056Z,71.93
2023-04-01T12:24:13.967Z,70.69
2023-04-01T12:29:55.120Z,70.58
2023-04-01T12:35:07.264Z,69.35
2023-04-01T12:40:22.095Z,65.95
2023-04-01T12:45:34.397Z,68.07
2023-04-01T12:51:09.788Z,69.79
2023-04-01T12:56:24.661Z,68.12
2023-04-01T13:01:44.239Z,66.14
2023-04-01T13:07:15.806Z,69.80
2023-04-01T13:12:44.127Z,70.00
2023-04-01T13:17:53.844Z,66.94
2023-04-01T13:23:18.390Z,69.73
2023-04-01T13:28:39.220Z,67.56
2023-04-01T13:34:18.574Z,74.47
2023-04-01T13:39:34.365Z,76.93
2023-04-01T13:44:41.186Z,73.10
2023-04-01T13:49:54.546Z,74.28
2023-04-01T13:55:12.071Z,74.13
2023-04-01T14:00:28.390Z,68.38
2023-04-01T14:06:01.388Z,68.04
2023-04-01T14:11:21.769Z,71.65
2023-04-01T14:16:42.141Z,66.14
2023-04-01T14:22:19.687Z,67.09
2023-04-01T14:27:41.927Z,69.16
2023-04-01T14:32:49.419Z,68.75
2023-04-01T14:38:12.044Z,66.56
2023-04-01T14:43:31.412Z,64.92
2023-04-01T14:48:39.240Z,63.56
2023-04-01T14:53:46.775Z,64.47
2023-04-01T14:58:51.170Z,65.71
2023-04-01T15:04:33.405Z,65.44
2023-04-01T15:10:05.249Z,65.16
2023-04-01T15:15:21.194Z,65.59
2023-04-01T15:20:48.854Z,67.46
2023-04-01T15:26:21.858Z,69.50
2023-04-01T15:31:51.566Z,66.58
2023-04-01T15:37:20.785Z,67.73
2023-04-01T15:42:36.205Z,72.40
2023-04-01T15:47:43.297Z,69.42
2023-04-01T15:52:56.140Z,69.32
2023-04-01T15:58:16.234Z,73.70
2023-04-01T16:03:52.293Z,74.25
2023-04-01T16:09:35.111Z,71.84
2023-04-01T16:15:00.505Z,72.31
2023-04-01T16:20:11.095Z,66.71
2023-04-01T16:25:25.764Z,69.62
2023-04-01T16:30:48.934Z,72.07
2023-04-01T16:36:12.291Z,72.98
2023-04-01T16:41:21.558Z,72.02
2023-04-01T16:46:34.897Z,70.84
2023-04-01T16:51:48.736Z,72.58
2023-04-01T16:56:56.037Z,68.89
2023-04-01T17:02:12.496Z,72.46
2023-04-01T17:07:29.305Z,73.36
2023-04-01T17:12:48.392Z,73.63
2023-04-01T17:18:02.932Z,74.46
2023-04-01T17:23:15.361Z,74.86
2023-04-01T17:28:31.534Z,74.78
2023-04-01T17:34:15.426Z,75.26
2023-04-01T17:39:48.844Z,75.24
2023-04-01T17:45:04.895Z,75.00
2023-04-01T17:50:30.334Z,75.61
2023-04-01T17:56:05.773Z,75.46
2023-04-01T18:01:19.176Z,74.89
2023-04-01T18:06:37.538Z,75.73
2023-04-01T18:12:10.025Z,74.96
2023-04-01T18:17:33.551Z,75.00
2023-04-01T18:22:47.938Z,74.90
2023-04-01T18:27:54.588Z,74.20
2023-04-01T18:33:20.562Z,73.83
2023-04-01T18:38:31.426Z,72.38
2023-04-01T18:43:57.195Z,73.81
2023-04-01T18:49:07.573Z,74.27
2023-04-01T18:54:24.170Z,73.80
2023-04-01T18:59:42.143Z,72.17
2023-04-01T19:04:50.026Z,73.46
2023-04-01T19:09:51.580Z,72.90
2023-04-01T19:15:16.863Z,73.53
2023-04-01T19:20:33.957Z,75.06
2023-04-01T19:26:11.874Z,75.19
2023-04-01T19:31:19.118Z,75.19
2023-04-01T19:36:31.610Z,76.51
2023-04-01T19:41:48.836Z,76.67
2023-04-01T19:47:13.668Z,75.54
2023-04-01T19:52:30.327Z,75.77
2023-04-01T19:57:46.999Z,77.13
2023-04-01T20:03:01.892Z,78.48
2023-04-01T20:08:24.099Z,77.67
2023-04-01T20:13:58.571Z,76.93
2023-04-01T20:19:01.542Z,78.31
2023-04-01T20:24:18.212Z,78.41
2023-04-01T20:29:22.657Z,78.78
2023-04-01T20:34:58.433Z,78.35
2023-04-01T20:40:27.812Z,81.12
2023-04-01T20:45:36.473Z,80.47
2023-04-01T20:51:10.988Z,80.76
2023-04-01T20:56:18.299Z,80.75
2023-04-01T21:01:53.541Z,81.53
2023-04-01T21:07:10.426Z,82.09
2023-04-01T21:12:28.406Z,81.93
2023-04-01T21:17:49.448Z,80.48
2023-04-01T21:23:25.471Z,80.68
2023-04-01T21:28:48.757Z,81.61
2023-04-01T21:34:27.928Z,82.26
2023-04-01T21:39:29.245Z,83.40
2023-04-01T21:44:49.883Z,83.02
2023-04-01T21:50:16.370Z,83.37
2023-04-01T21:55:39.736Z,83.97
2023-04-01T22:00:59.765Z,83.34
2023-04-01T22:06:09.782Z,82.50
2023-04-01T22:11:24.614Z,83.34
2023-04-01T22:16:40.723Z,83.07
2023-04-01T22:21:53.237Z,84.06
2023-04-01T22:27:03.385Z,83.61
2023-04-01T22:32:09.235Z,84.67
2023-04-01T22:37:23.106Z,83.96
2023-04-01T22:42:39.734Z,84.14
2023-04-01T22:48:09.228Z,84.32
2023-04-01T22:53:37.813Z,84.58
2023-04-01T22:58:50.189Z,86.13
2023-04-01T23:03:52.757Z,85.94
2023-04-01T23:09:31.085Z,84.89
2023-04-01T23:14:55.663Z,85.91
2023-04-01T23:20:12.209Z,86.38
2023-04-01T23:25:43.116Z,85.70
2023-04-01T23:30:44.979Z,86.15
2023-04-01T23:36:11.657Z,85.66
2023-04-01T23:41:24.045Z,83.86
2023-04-01T23:46:26.880Z,85.67
2023-04-01T23:51:37.236Z,85.70
2023-04-01T23:56:43.277Z,85.94
